Time;durP1;ratioP1;P1;durP2;ratioP2;P2;SDS_P1;SDS_P2;PMS_P1;PMS_P2;Temp;Humidity;BMP_temperature;BMP_pressure;BME280_temperature;BME280_humidity;BME280_pressure;Samples;Min_cycle;Max_cycle;Signal;HPM_P1;HPM_P2
2021/05/20 00:01:57;;;;;;;1.83;0.80;;;;;;;;;;10529159;28;20223;-70
2021/05/20 00:07:00;;;;;;;1.33;1.00;;;;;;;;;;10529146;28;20234;-70
2021/05/20 00:12:03;;;;;;;1.97;1.10;;;;;;;;;;10528373;28;20216;-69
2021/05/20 00:17:05;;;;;;;3.20;1.23;;;;;;;;;;10534451;28;20274;-70
2021/05/20 00:22:08;;;;;;;3.63;1.30;;;;;;;;;;10523937;28;20211;-70
2021/05/20 00:27:11;;;;;;;1.23;0.97;;;;;;;;;;10534808;28;20200;-69
2021/05/20 00:32:13;;;;;;;3.53;1.47;;;;;;;;;;10531573;28;20211;-70
2021/05/20 00:37:19;;;;;;;2.77;1.13;;;;;;;;;;10536028;27;20192;-72
2021/05/20 00:42:22;;;;;;;3.17;1.20;;;;;;;;;;10526708;28;20242;-71
2021/05/20 00:47:26;;;;;;;2.70;1.20;;;;;;;;;;10521095;28;20203;-71
2021/05/20 00:52:30;;;;;;;2.97;1.13;;;;;;;;;;10532221;28;20207;-71
2021/05/20 00:57:32;;;;;;;3.37;1.37;;;;;;;;;;10532976;28;20195;-72
2021/05/20 01:02:35;;;;;;;3.47;1.30;;;;;;;;;;10528362;28;20258;-69
2021/05/20 01:07:39;;;;;;;2.83;1.50;;;;;;;;;;10530169;28;20202;-69
2021/05/20 01:12:41;;;;;;;3.00;1.30;;;;;;;;;;10524945;28;20288;-68
2021/05/20 01:17:46;;;;;;;2.13;1.07;;;;;;;;;;10524875;28;20208;-70
2021/05/20 01:22:50;;;;;;;3.80;1.53;;;;;;;;;;10528595;28;20212;-70
2021/05/20 01:27:53;;;;;;;2.43;1.10;;;;;;;;;;10521145;28;20250;-70
2021/05/20 01:32:55;;;;;;;3.10;1.40;;;;;;;;;;10534343;28;20296;-70
2021/05/20 01:38:24;;;;;;;3.47;1.60;;;;;;;;;;10525119;28;20653;-68
2021/05/20 01:43:27;;;;;;;2.77;1.50;;;;;;;;;;10527819;28;20280;-71
2021/05/20 01:48:31;;;;;;;2.80;1.50;;;;;;;;;;10515173;28;20616;-70
2021/05/20 01:53:34;;;;;;;3.67;1.60;;;;;;;;;;10525383;28;20252;-70
2021/05/20 01:58:37;;;;;;;2.40;1.23;;;;;;;;;;10528865;28;20199;-70
2021/05/20 02:03:40;;;;;;;2.23;1.50;;;;;;;;;;10530293;28;20207;-69
2021/05/20 02:08:43;;;;;;;2.13;1.10;;;;;;;;;;10524716;28;20199;-69
2021/05/20 02:13:46;;;;;;;1.77;1.10;;;;;;;;;;10531896;28;20234;-70
2021/05/20 02:18:48;;;;;;;2.07;1.10;;;;;;;;;;10524440;28;20230;-69
2021/05/20 02:23:52;;;;;;;2.73;1.30;;;;;;;;;;10532916;28;20718;-69
2021/05/20 02:28:55;;;;;;;2.10;1.03;;;;;;;;;;10526258;28;20196;-70
2021/05/20 02:33:58;;;;;;;3.23;1.10;;;;;;;;;;10528857;28;20655;-71
2021/05/20 02:39:01;;;;;;;2.40;1.00;;;;;;;;;;10530085;28;20210;-70
2021/05/20 02:44:04;;;;;;;1.67;1.10;;;;;;;;;;10531877;28;20488;-72
2021/05/20 02:49:06;;;;;;;2.30;0.90;;;;;;;;;;10518905;28;20274;-71
2021/05/20 02:54:09;;;;;;;1.73;1.00;;;;;;;;;;10519827;28;20204;-71
2021/05/20 02:59:12;;;;;;;3.07;1.10;;;;;;;;;;10524447;28;20261;-70
2021/05/20 03:04:14;;;;;;;2.13;1.13;;;;;;;;;;10519224;28;20218;-71
2021/05/20 03:09:18;;;;;;;3.03;1.00;;;;;;;;;;10519277;28;20203;-72
2021/05/20 03:14:21;;;;;;;2.77;1.10;;;;;;;;;;10526991;28;20207;-71
2021/05/20 03:19:23;;;;;;;2.70;1.00;;;;;;;;;;10526471;28;20190;-69
2021/05/20 03:24:27;;;;;;;3.63;0.93;;;;;;;;;;10519755;28;20219;-71
2021/05/20 03:29:29;;;;;;;1.60;1.07;;;;;;;;;;10525074;28;20274;-70
2021/05/20 03:34:32;;;;;;;1.10;0.73;;;;;;;;;;10530772;28;20233;-70
2021/05/20 03:39:35;;;;;;;3.27;1.00;;;;;;;;;;10533000;28;20225;-70
2021/05/20 03:44:37;;;;;;;2.53;0.87;;;;;;;;;;10526560;28;20234;-70
2021/05/20 03:49:40;;;;;;;2.47;1.07;;;;;;;;;;10508714;28;20600;-69
2021/05/20 03:54:43;;;;;;;2.27;1.07;;;;;;;;;;10519621;28;20187;-70
2021/05/20 03:59:46;;;;;;;1.37;0.90;;;;;;;;;;10520468;28;20581;-70
2021/05/20 04:04:48;;;;;;;2.37;0.73;;;;;;;;;;10517518;28;20249;-70
2021/05/20 04:09:52;;;;;;;2.97;1.13;;;;;;;;;;10521367;28;20378;-71
2021/05/20 04:14:55;;;;;;;2.20;0.90;;;;;;;;;;10524795;28;20318;-71
2021/05/20 04:19:58;;;;;;;1.67;0.90;;;;;;;;;;10505148;28;20199;-70
2021/05/20 04:25:01;;;;;;;3.10;1.00;;;;;;;;;;10517924;28;20585;-68
2021/05/20 04:30:05;;;;;;;2.03;1.10;;;;;;;;;;10520516;28;20444;-70
2021/05/20 04:35:11;;;;;;;2.47;1.27;;;;;;;;;;10497720;28;20684;-70
2021/05/20 04:40:15;;;;;;;1.97;1.20;;;;;;;;;;10513939;28;20220;-70
2021/05/20 04:45:17;;;;;;;3.17;1.20;;;;;;;;;;10527995;28;20233;-70
2021/05/20 04:50:20;;;;;;;3.47;1.23;;;;;;;;;;10525356;28;20214;-70
2021/05/20 04:55:23;;;;;;;2.43;1.40;;;;;;;;;;10518684;28;20187;-70
2021/05/20 05:00:25;;;;;;;1.27;1.03;;;;;;;;;;10529289;28;20277;-71
2021/05/20 05:05:28;;;;;;;2.13;1.10;;;;;;;;;;10523466;27;20216;-71
2021/05/20 05:10:30;;;;;;;3.40;1.37;;;;;;;;;;10521380;28;20227;-70
2021/05/20 05:15:34;;;;;;;4.50;1.30;;;;;;;;;;10514685;28;20209;-69
2021/05/20 05:20:36;;;;;;;3.30;1.60;;;;;;;;;;10509833;28;20703;-69
2021/05/20 05:25:40;;;;;;;3.17;1.40;;;;;;;;;;10509122;28;20701;-69
2021/05/20 05:30:44;;;;;;;3.10;1.43;;;;;;;;;;10501383;28;20212;-67
2021/05/20 05:35:47;;;;;;;2.57;1.50;;;;;;;;;;10514738;28;20459;-70
2021/05/20 05:40:51;;;;;;;3.03;1.37;;;;;;;;;;10514218;28;20224;-69
2021/05/20 05:45:54;;;;;;;4.57;1.60;;;;;;;;;;10506331;28;20302;-71
2021/05/20 05:50:57;;;;;;;2.37;1.10;;;;;;;;;;10505226;28;20226;-72
2021/05/20 05:56:03;;;;;;;4.00;1.40;;;;;;;;;;10514767;27;20199;-71
2021/05/20 06:01:06;;;;;;;2.33;1.23;;;;;;;;;;10506175;28;20211;-72
2021/05/20 06:06:08;;;;;;;4.20;1.37;;;;;;;;;;10534426;27;20212;-71
2021/05/20 06:11:12;;;;;;;2.03;1.20;;;;;;;;;;10510449;28;20230;-72
2021/05/20 06:16:14;;;;;;;3.47;1.30;;;;;;;;;;10517130;28;20553;-72
2021/05/20 06:21:17;;;;;;;3.17;1.67;;;;;;;;;;10519056;28;20226;-71
2021/05/20 06:26:20;;;;;;;1.60;1.20;;;;;;;;;;10527749;28;20250;-72
2021/05/20 06:31:22;;;;;;;2.93;1.50;;;;;;;;;;10522443;28;20211;-72
2021/05/20 06:36:25;;;;;;;2.73;1.30;;;;;;;;;;10524028;28;20191;-70
2021/05/20 06:41:28;;;;;;;3.00;1.30;;;;;;;;;;10524161;28;20211;-71
2021/05/20 06:46:30;;;;;;;4.70;1.47;;;;;;;;;;10517985;28;20298;-72
2021/05/20 06:51:33;;;;;;;3.13;1.50;;;;;;;;;;10518151;28;20692;-71
2021/05/20 06:56:37;;;;;;;2.10;1.20;;;;;;;;;;10531996;28;20240;-71
2021/05/20 07:01:45;;;;;;;4.53;1.30;;;;;;;;;;10519248;28;20578;-71
2021/05/20 07:06:47;;;;;;;2.33;1.30;;;;;;;;;;10520094;28;20192;-71
2021/05/20 07:12:01;;;;;;;2.20;1.20;;;;;;;;;;10518488;28;20239;-72
2021/05/20 07:17:04;;;;;;;1.67;1.17;;;;;;;;;;10521339;28;20191;-72
2021/05/20 07:22:06;;;;;;;1.70;1.07;;;;;;;;;;10523911;28;20299;-71
2021/05/20 07:27:09;;;;;;;1.97;0.90;;;;;;;;;;10525722;28;20227;-72
2021/05/20 07:32:17;;;;;;;2.00;1.20;;;;;;;;;;10518932;28;20215;-72
2021/05/20 07:37:20;;;;;;;2.67;1.30;;;;;;;;;;10524984;28;20195;-72
2021/05/20 07:42:24;;;;;;;1.67;1.00;;;;;;;;;;10524379;28;20211;-72
2021/05/20 07:47:27;;;;;;;2.47;1.20;;;;;;;;;;10517099;28;20200;-73
2021/05/20 07:52:30;;;;;;;1.23;1.07;;;;;;;;;;10522795;28;20243;-73
2021/05/20 07:57:35;;;;;;;1.65;1.00;;;;;;;;;;10532353;28;20667;-72
2021/05/20 08:02:45;;;;;;;1.87;1.00;;;;;;;;;;10516241;28;20272;-72
2021/05/20 08:07:51;;;;;;;1.57;1.03;;;;;;;;;;10526497;28;20191;-71
2021/05/20 08:12:55;;;;;;;3.10;1.00;;;;;;;;;;10530201;28;20216;-72
2021/05/20 08:17:57;;;;;;;3.73;1.20;;;;;;;;;;10530214;28;20951;-70
2021/05/20 08:23:00;;;;;;;1.83;1.20;;;;;;;;;;10533585;28;20239;-70
2021/05/20 08:28:04;;;;;;;2.37;1.20;;;;;;;;;;10516125;28;20226;-72
2021/05/20 08:33:06;;;;;;;3.55;1.30;;;;;;;;;;10524892;28;20223;-73
2021/05/20 08:38:08;;;;;;;1.38;1.20;;;;;;;;;;10522878;28;20724;-72
2021/05/20 08:43:11;;;;;;;2.35;1.05;;;;;;;;;;10528974;28;20651;-74
2021/05/20 08:48:13;;;;;;;1.88;1.10;;;;;;;;;;10543047;27;20188;-73
2021/05/20 08:53:16;;;;;;;1.37;0.83;;;;;;;;;;10525813;28;20264;-73
2021/05/20 08:58:24;;;;;;;1.43;0.90;;;;;;;;;;10529348;28;20192;-73
2021/05/20 09:03:27;;;;;;;1.90;1.15;;;;;;;;;;10522237;28;20290;-73
2021/05/20 09:08:31;;;;;;;2.42;1.20;;;;;;;;;;10518262;28;20192;-74
2021/05/20 09:13:37;;;;;;;3.10;1.50;;;;;;;;;;10544817;28;20220;-73
2021/05/20 09:18:40;;;;;;;1.83;1.20;;;;;;;;;;10526456;28;20227;-74
2021/05/20 09:23:49;;;;;;;1.58;0.93;;;;;;;;;;10525149;28;20259;-73
2021/05/20 09:28:52;;;;;;;1.20;1.10;;;;;;;;;;10519178;28;20215;-74
2021/05/20 09:33:55;;;;;;;1.05;0.95;;;;;;;;;;10524716;28;20603;-74
2021/05/20 09:39:09;;;;;;;0.98;0.90;;;;;;;;;;10516111;28;20588;-70
2021/05/20 09:44:26;;;;;;;1.48;1.23;;;;;;;;;;10523215;28;20265;-72
2021/05/20 09:49:28;;;;;;;1.92;1.17;;;;;;;;;;10516146;28;20673;-69
2021/05/20 09:54:42;;;;;;;1.17;1.10;;;;;;;;;;10524850;28;20211;-71
2021/05/20 09:59:45;;;;;;;2.40;1.27;;;;;;;;;;10521064;28;20286;-70
2021/05/20 10:04:47;;;;;;;1.25;1.05;;;;;;;;;;10514359;28;20581;-71
2021/05/20 10:09:49;;;;;;;1.85;1.00;;;;;;;;;;10529969;28;20204;-71
2021/05/20 10:14:53;;;;;;;0.80;0.80;;;;;;;;;;10527910;28;20218;-71
2021/05/20 10:19:56;;;;;;;1.08;1.00;;;;;;;;;;10527670;28;20184;-68
2021/05/20 10:24:59;;;;;;;1.48;0.80;;;;;;;;;;10526856;28;20242;-68
2021/05/20 10:30:03;;;;;;;1.55;0.93;;;;;;;;;;10524980;28;20667;-68
2021/05/20 10:35:07;;;;;;;1.13;0.73;;;;;;;;;;10524677;28;20188;-71
2021/05/20 10:40:26;;;;;;;1.55;1.02;;;;;;;;;;10521794;28;20279;-71
2021/05/20 10:45:29;;;;;;;0.80;0.80;;;;;;;;;;10525602;28;20212;-71
2021/05/20 10:50:46;;;;;;;1.15;0.90;;;;;;;;;;10525544;28;20215;-72
2021/05/20 10:55:48;;;;;;;3.97;1.13;;;;;;;;;;10512267;28;20382;-70
2021/05/20 11:00:51;;;;;;;2.08;0.90;;;;;;;;;;10519499;28;20369;-72
2021/05/20 11:05:57;;;;;;;0.90;0.90;;;;;;;;;;10520738;28;20216;-74
2021/05/20 11:10:59;;;;;;;0.93;0.88;;;;;;;;;;10514602;28;20235;-71
2021/05/20 11:16:12;;;;;;;1.13;0.98;;;;;;;;;;10505004;28;20193;-72
2021/05/20 11:21:14;;;;;;;0.60;0.60;;;;;;;;;;10509933;28;20294;-71
2021/05/20 11:26:18;;;;;;;0.50;0.50;;;;;;;;;;10514005;28;20223;-70
2021/05/20 11:31:22;;;;;;;0.70;0.70;;;;;;;;;;10512380;28;20204;-71
2021/05/20 11:36:35;;;;;;;1.00;0.90;;;;;;;;;;10518238;28;20191;-71
2021/05/20 11:41:39;;;;;;;0.98;0.70;;;;;;;;;;10520625;28;20237;-71
2021/05/20 11:46:43;;;;;;;1.33;0.55;;;;;;;;;;10515024;28;20196;-72
2021/05/20 11:51:47;;;;;;;0.75;0.60;;;;;;;;;;10520903;28;20674;-72
2021/05/20 11:56:51;;;;;;;1.15;0.70;;;;;;;;;;10517554;28;20204;-71
2021/05/20 12:01:54;;;;;;;0.63;0.63;;;;;;;;;;10514535;28;20207;-71
2021/05/20 12:06:56;;;;;;;0.70;0.70;;;;;;;;;;10511747;28;20509;-71
2021/05/20 12:12:07;;;;;;;0.85;0.80;;;;;;;;;;10520482;28;20645;-72
2021/05/20 12:17:11;;;;;;;0.70;0.60;;;;;;;;;;10514265;28;20202;-70
2021/05/20 12:22:17;;;;;;;1.00;0.90;;;;;;;;;;10519167;28;20341;-72
2021/05/20 12:27:21;;;;;;;0.55;0.55;;;;;;;;;;10520219;28;20200;-73
2021/05/20 12:32:38;;;;;;;2.35;1.10;;;;;;;;;;10517651;28;20204;-71
2021/05/20 12:37:45;;;;;;;1.33;0.90;;;;;;;;;;10516989;28;20559;-72
2021/05/20 12:43:03;;;;;;;1.35;0.80;;;;;;;;;;10517154;28;20369;-71
2021/05/20 12:48:18;;;;;;;1.73;1.20;;;;;;;;;;10520402;28;20188;-71
2021/05/20 12:53:25;;;;;;;0.82;0.70;;;;;;;;;;10525338;28;20586;-71
2021/05/20 12:58:46;;;;;;;0.98;0.90;;;;;;;;;;10516594;28;20288;-69
2021/05/20 13:03:50;;;;;;;1.02;0.93;;;;;;;;;;10525441;28;20322;-71
2021/05/20 13:08:53;;;;;;;2.03;0.65;;;;;;;;;;10526463;28;20203;-72
2021/05/20 13:14:12;;;;;;;1.17;1.00;;;;;;;;;;10525256;28;20219;-72
2021/05/20 13:24:44;;;;;;;0.80;0.50;;;;;;;;;;10522085;28;20329;-68
2021/05/20 13:29:47;;;;;;;0.80;0.60;;;;;;;;;;10518479;28;20189;-70
2021/05/20 13:34:50;;;;;;;0.60;0.50;;;;;;;;;;10522677;28;20283;-70
2021/05/20 13:39:52;;;;;;;0.83;0.63;;;;;;;;;;10523718;28;20559;-71
2021/05/20 13:44:55;;;;;;;1.63;0.73;;;;;;;;;;10523962;28;20295;-69
2021/05/20 13:49:58;;;;;;;0.50;0.50;;;;;;;;;;10536512;28;20577;-70
2021/05/20 13:55:00;;;;;;;2.00;0.80;;;;;;;;;;10521153;28;20609;-69
2021/05/20 14:00:06;;;;;;;0.53;0.53;;;;;;;;;;10517313;28;20204;-68
2021/05/20 14:05:09;;;;;;;2.03;0.87;;;;;;;;;;10527227;28;20224;-70
2021/05/20 14:10:12;;;;;;;1.17;0.70;;;;;;;;;;10519316;28;20564;-68
2021/05/20 14:15:14;;;;;;;0.77;0.47;;;;;;;;;;10526711;28;20639;-70
2021/05/20 14:20:19;;;;;;;0.67;0.67;;;;;;;;;;10528111;28;20495;-67
2021/05/20 14:25:22;;;;;;;0.73;0.60;;;;;;;;;;10524813;28;20215;-70
2021/05/20 14:30:25;;;;;;;0.50;0.50;;;;;;;;;;10526795;28;20211;-70
2021/05/20 14:35:46;;;;;;;2.37;0.60;;;;;;;;;;10523604;28;20187;-71
2021/05/20 14:40:49;;;;;;;1.03;0.60;;;;;;;;;;10518300;28;20682;-70
2021/05/20 14:45:51;;;;;;;1.00;0.57;;;;;;;;;;10519255;28;20223;-71
2021/05/20 14:51:00;;;;;;;1.80;0.60;;;;;;;;;;10518207;28;20222;-70
2021/05/20 14:56:06;;;;;;;1.40;0.30;;;;;;;;;;10518227;28;20218;-69
2021/05/20 15:06:29;;;;;;;0.80;0.30;;;;;;;;;;10516557;28;20214;-71
2021/05/20 15:11:35;;;;;;;0.40;0.40;;;;;;;;;;10521180;28;20538;-68
2021/05/20 15:16:43;;;;;;;0.40;0.40;;;;;;;;;;10519423;28;20242;-68
2021/05/20 15:21:46;;;;;;;0.67;0.53;;;;;;;;;;10519206;28;20575;-71
2021/05/20 15:26:49;;;;;;;4.63;1.87;;;;;;;;;;10521697;28;20582;-71
2021/05/20 15:31:51;;;;;;;1.03;0.80;;;;;;;;;;10522796;28;20231;-70
2021/05/20 15:36:55;;;;;;;0.43;0.43;;;;;;;;;;10524710;28;20244;-71
2021/05/20 15:41:57;;;;;;;1.37;0.67;;;;;;;;;;10525319;28;20208;-70
2021/05/20 15:47:02;;;;;;;0.87;0.40;;;;;;;;;;10518797;28;20220;-71
2021/05/20 15:52:06;;;;;;;0.63;0.50;;;;;;;;;;10519228;28;20212;-70
2021/05/20 15:57:09;;;;;;;1.23;0.70;;;;;;;;;;10521711;28;20199;-70
2021/05/20 16:02:12;;;;;;;0.77;0.60;;;;;;;;;;10518649;28;20245;-69
2021/05/20 16:07:20;;;;;;;1.60;0.70;;;;;;;;;;10518979;28;20235;-70
2021/05/20 16:12:29;;;;;;;0.90;0.70;;;;;;;;;;10511495;28;20227;-69
2021/05/20 16:17:31;;;;;;;0.50;0.50;;;;;;;;;;10515776;28;20192;-72
2021/05/20 16:22:38;;;;;;;1.33;0.70;;;;;;;;;;10523571;28;20230;-71
2021/05/20 16:38:21;;;;;;;1.47;0.93;;;;;;;;;;10520048;28;20215;-71
2021/05/20 16:43:23;;;;;;;0.90;0.53;;;;;;;;;;10520672;28;20281;-70
2021/05/20 16:48:26;;;;;;;0.90;0.60;;;;;;;;;;10515869;28;20321;-70
2021/05/20 16:53:29;;;;;;;1.40;0.70;;;;;;;;;;10523601;28;21956;-70
2021/05/20 16:58:34;;;;;;;4.10;2.20;;;;;;;;;;10525470;28;20769;-71
2021/05/20 17:03:37;;;;;;;1.90;0.70;;;;;;;;;;10529452;28;20338;-69
2021/05/20 17:08:40;;;;;;;1.80;0.83;;;;;;;;;;10526275;28;20536;-69
2021/05/20 17:13:42;;;;;;;0.60;0.60;;;;;;;;;;10529124;28;20503;-69
2021/05/20 17:18:45;;;;;;;3.20;0.70;;;;;;;;;;10529038;28;20612;-66
2021/05/20 17:23:51;;;;;;;0.50;0.40;;;;;;;;;;10538741;28;20298;-67
2021/05/20 17:28:57;;;;;;;2.57;0.87;;;;;;;;;;10534287;28;20225;-71
2021/05/20 17:34:00;;;;;;;0.80;0.60;;;;;;;;;;10516746;28;20219;-70
2021/05/20 17:39:03;;;;;;;1.10;0.70;;;;;;;;;;10546124;28;20278;-70
2021/05/20 17:44:09;;;;;;;1.23;0.90;;;;;;;;;;10537156;28;20224;-70
2021/05/20 17:49:14;;;;;;;3.40;1.30;;;;;;;;;;10522040;28;21031;-70
2021/05/20 17:54:18;;;;;;;0.93;0.70;;;;;;;;;;10522886;28;20216;-71
2021/05/20 17:59:23;;;;;;;0.90;0.70;;;;;;;;;;10526693;28;20207;-70
2021/05/20 18:04:26;;;;;;;1.10;0.80;;;;;;;;;;10521629;28;20203;-71
2021/05/20 18:09:33;;;;;;;2.43;1.00;;;;;;;;;;10522989;28;20705;-68
2021/05/20 18:14:39;;;;;;;1.30;0.90;;;;;;;;;;10532693;28;20207;-70
2021/05/20 18:20:06;;;;;;;2.50;1.30;;;;;;;;;;10535327;28;20997;-70
2021/05/20 18:25:11;;;;;;;5.60;2.20;;;;;;;;;;10528616;28;20294;-70
2021/05/20 18:30:16;;;;;;;5.70;2.20;;;;;;;;;;10522302;28;20226;-69
2021/05/20 18:35:19;;;;;;;3.63;1.73;;;;;;;;;;10521043;28;20223;-70
2021/05/20 18:40:24;;;;;;;3.17;1.30;;;;;;;;;;10522500;28;20212;-69
2021/05/20 18:45:28;;;;;;;1.90;1.23;;;;;;;;;;10528299;28;20202;-68
2021/05/20 18:50:31;;;;;;;6.63;2.17;;;;;;;;;;10528618;28;20713;-70
2021/05/20 18:55:35;;;;;;;3.03;1.10;;;;;;;;;;10520005;28;20734;-70
2021/05/20 19:00:38;;;;;;;2.33;1.20;;;;;;;;;;10513617;28;20299;-70
2021/05/20 19:05:46;;;;;;;3.23;1.57;;;;;;;;;;10527772;28;20307;-68
2021/05/20 19:10:52;;;;;;;5.43;2.17;;;;;;;;;;10528627;28;20230;-70
2021/05/20 19:15:56;;;;;;;4.30;2.00;;;;;;;;;;10530096;28;20192;-70
2021/05/20 19:21:06;;;;;;;8.97;3.60;;;;;;;;;;10535343;28;20250;-69
2021/05/20 19:26:13;;;;;;;7.87;3.10;;;;;;;;;;10527937;28;20208;-71
2021/05/20 19:31:19;;;;;;;7.77;2.60;;;;;;;;;;10526454;28;20227;-71
2021/05/20 19:36:23;;;;;;;6.23;2.73;;;;;;;;;;10526123;28;20284;-71
2021/05/20 19:41:27;;;;;;;6.37;2.70;;;;;;;;;;10519493;28;20222;-71
2021/05/20 19:46:30;;;;;;;5.53;2.47;;;;;;;;;;10523105;28;20708;-72
2021/05/20 19:51:32;;;;;;;4.80;1.93;;;;;;;;;;10525784;28;20707;-72
2021/05/20 20:01:56;;;;;;;5.23;2.17;;;;;;;;;;10532070;28;20215;-72
2021/05/20 20:07:06;;;;;;;6.63;2.20;;;;;;;;;;10518499;28;20231;-71
2021/05/20 20:12:14;;;;;;;4.30;1.80;;;;;;;;;;10516802;28;20890;-71
2021/05/20 20:17:16;;;;;;;3.90;1.80;;;;;;;;;;10513164;28;20192;-72
2021/05/20 20:22:26;;;;;;;4.67;2.07;;;;;;;;;;10549365;28;20215;-71
2021/05/20 20:27:47;;;;;;;5.27;2.20;;;;;;;;;;10551014;28;20234;-70
2021/05/20 20:32:51;;;;;;;4.40;2.00;;;;;;;;;;10547912;28;20215;-70
2021/05/20 20:43:14;;;;;;;4.73;1.87;;;;;;;;;;10548068;28;20238;-71
2021/05/20 20:48:17;;;;;;;3.27;1.60;;;;;;;;;;10556761;28;20302;-71
2021/05/20 20:53:19;;;;;;;4.23;1.90;;;;;;;;;;10546576;28;20535;-71
2021/05/20 20:58:23;;;;;;;4.73;1.80;;;;;;;;;;10542204;28;20370;-69
2021/05/20 21:03:25;;;;;;;3.23;1.67;;;;;;;;;;10531545;28;20283;-71
2021/05/20 21:08:27;;;;;;;3.90;1.70;;;;;;;;;;10521177;28;20640;-71
2021/05/20 21:13:31;;;;;;;3.70;1.30;;;;;;;;;;10526121;28;20220;-68
2021/05/20 21:18:33;;;;;;;2.97;1.30;;;;;;;;;;10535512;28;20189;-72
2021/05/20 21:23:35;;;;;;;2.77;1.53;;;;;;;;;;10523527;28;20298;-71
2021/05/20 21:28:39;;;;;;;2.03;1.27;;;;;;;;;;10521180;28;20228;-70
2021/05/20 21:33:41;;;;;;;3.40;1.33;;;;;;;;;;10520479;28;20234;-71
2021/05/20 21:38:44;;;;;;;2.40;1.30;;;;;;;;;;10517752;28;20192;-72
2021/05/20 21:43:47;;;;;;;2.37;1.10;;;;;;;;;;10526936;28;20364;-70
2021/05/20 21:48:50;;;;;;;1.43;1.10;;;;;;;;;;10526649;28;20212;-72
2021/05/20 21:53:53;;;;;;;1.57;1.10;;;;;;;;;;10521225;28;20590;-72
2021/05/20 21:59:16;;;;;;;1.50;0.97;;;;;;;;;;10522177;28;20184;-70
2021/05/20 22:04:19;;;;;;;3.73;1.30;;;;;;;;;;10527179;28;20561;-70
2021/05/20 22:09:28;;;;;;;4.23;1.30;;;;;;;;;;10531877;28;20738;-68
2021/05/20 22:19:51;;;;;;;2.60;0.90;;;;;;;;;;10521270;28;20195;-69
2021/05/20 22:24:55;;;;;;;2.63;1.07;;;;;;;;;;10519633;28;20644;-70
2021/05/20 22:30:07;;;;;;;1.67;0.90;;;;;;;;;;10514507;28;20196;-68
2021/05/20 22:35:11;;;;;;;1.67;1.00;;;;;;;;;;10520716;28;20187;-69
2021/05/20 22:40:15;;;;;;;3.40;1.07;;;;;;;;;;10520696;28;20268;-72
2021/05/20 22:45:19;;;;;;;3.90;1.50;;;;;;;;;;10521381;28;20212;-67
2021/05/20 22:50:21;;;;;;;3.60;1.37;;;;;;;;;;10536085;28;20582;-67
2021/05/20 22:55:24;;;;;;;2.63;1.17;;;;;;;;;;10526948;28;20558;-68
2021/05/20 23:00:27;;;;;;;4.40;1.10;;;;;;;;;;10534137;28;20223;-69
2021/05/20 23:05:30;;;;;;;1.87;1.00;;;;;;;;;;10516877;28;20207;-70
2021/05/20 23:10:33;;;;;;;2.37;1.30;;;;;;;;;;10525069;28;20228;-70
2021/05/20 23:15:36;;;;;;;1.57;1.30;;;;;;;;;;10522263;28;20188;-68
2021/05/20 23:20:40;;;;;;;1.80;1.20;;;;;;;;;;10520011;28;20250;-69
2021/05/20 23:25:42;;;;;;;1.83;1.10;;;;;;;;;;10534676;28;20700;-69
2021/05/20 23:30:46;;;;;;;3.30;1.47;;;;;;;;;;10524386;28;20222;-71
2021/05/20 23:35:48;;;;;;;1.93;1.07;;;;;;;;;;10524136;28;20191;-72
2021/05/20 23:40:54;;;;;;;1.57;1.00;;;;;;;;;;10515385;28;20243;-71
2021/05/20 23:46:00;;;;;;;1.17;0.83;;;;;;;;;;10527612;28;20299;-71
2021/05/20 23:51:03;;;;;;;2.77;0.93;;;;;;;;;;10526911;28;20238;-72
2021/05/20 23:56:06;;;;;;;2.00;1.13;;;;;;;;;;10518678;28;20192;-71
